Time;durP1;ratioP1;P1;durP2;ratioP2;P2;SDS_P1;SDS_P2;PMS_P1;PMS_P2;Temp;Humidity;BMP_temperature;BMP_pressure;BME280_temperature;BME280_humidity;BME280_pressure;Samples;Min_cycle;Max_cycle;Signal;HPM_P1;HPM_P2
2023/01/14 00:01:19;;;;;;;20.53;4.10;;;7.60;99.90;;;;;;5117647;28;20610;-72
2023/01/14 00:03:45;;;;;;;19.17;3.70;;;7.60;99.90;;;;;;5117217;28;20625;-72
2023/01/14 00:06:13;;;;;;;30.20;3.93;;;7.60;99.90;;;;;;5116642;28;20293;-72
2023/01/14 00:08:39;;;;;;;25.47;3.90;;;7.70;99.90;;;;;;5117022;28;20306;-72
2023/01/14 00:11:07;;;;;;;22.33;4.23;;;7.60;99.90;;;;;;5098914;28;20281;-72
2023/01/14 00:13:38;;;;;;;22.00;4.13;;;7.70;99.90;;;;;;5116216;28;20390;-72
2023/01/14 00:16:05;;;;;;;21.17;3.80;;;7.70;99.90;;;;;;5115886;28;20297;-72
2023/01/14 00:18:32;;;;;;;18.93;3.27;;;7.70;99.90;;;;;;5117358;28;20284;-72
2023/01/14 00:21:05;;;;;;;22.73;4.67;;;7.60;99.90;;;;;;5116778;28;20380;-72
2023/01/14 00:23:32;;;;;;;22.03;3.93;;;7.60;99.90;;;;;;5116992;28;20282;-72
2023/01/14 00:26:03;;;;;;;22.77;3.87;;;7.60;99.90;;;;;;5116721;28;20312;-72
2023/01/14 00:28:29;;;;;;;21.40;4.37;;;7.60;99.90;;;;;;5116782;28;20358;-72
2023/01/14 00:31:04;;;;;;;22.30;3.73;;;7.60;99.90;;;;;;5116561;28;20313;-72
2023/01/14 00:33:30;;;;;;;24.00;3.67;;;7.60;99.90;;;;;;5117042;28;20277;-72
2023/01/14 00:35:55;;;;;;;17.50;4.20;;;7.60;99.90;;;;;;5116253;28;20070;-72
2023/01/14 00:38:21;;;;;;;22.63;3.90;;;7.50;99.90;;;;;;5115737;28;20127;-72
2023/01/14 00:40:47;;;;;;;18.43;3.53;;;7.60;99.90;;;;;;5116583;28;20507;-76
2023/01/14 00:43:12;;;;;;;19.73;3.70;;;7.50;99.90;;;;;;5116315;28;20082;-72
2023/01/14 00:45:38;;;;;;;23.43;3.80;;;7.50;99.90;;;;;;5115670;28;20051;-72
2023/01/14 00:48:04;;;;;;;20.50;3.60;;;7.50;99.90;;;;;;5114965;28;20423;-72
2023/01/14 00:50:30;;;;;;;20.70;4.23;;;7.50;99.90;;;;;;5116466;28;20040;-72
2023/01/14 00:52:55;;;;;;;21.07;4.43;;;7.50;99.90;;;;;;5115295;28;20075;-72
2023/01/14 00:55:21;;;;;;;24.17;3.80;;;7.50;99.90;;;;;;5116380;28;20044;-72
2023/01/14 00:57:47;;;;;;;23.93;4.10;;;7.50;99.90;;;;;;5116410;28;20047;-72
2023/01/14 01:00:13;;;;;;;19.73;3.27;;;7.50;99.90;;;;;;5081214;28;20060;-72
2023/01/14 01:02:39;;;;;;;25.13;4.33;;;7.40;99.90;;;;;;5114040;28;20114;-72
2023/01/14 01:05:05;;;;;;;24.10;4.00;;;7.50;99.90;;;;;;5114734;28;20285;-72
2023/01/14 01:07:31;;;;;;;18.97;3.23;;;7.40;99.90;;;;;;5116373;28;20043;-72
2023/01/14 01:09:56;;;;;;;21.57;4.07;;;7.40;99.90;;;;;;5116124;28;20297;-72
2023/01/14 01:12:22;;;;;;;29.87;3.77;;;7.40;99.90;;;;;;5115945;28;20377;-72
2023/01/14 01:14:48;;;;;;;25.93;4.17;;;7.40;99.90;;;;;;5116016;28;20048;-72
2023/01/14 01:17:13;;;;;;;24.40;3.77;;;7.40;99.90;;;;;;5114686;28;20444;-72
2023/01/14 01:19:39;;;;;;;29.70;4.90;;;7.40;99.90;;;;;;5115588;28;20044;-72
2023/01/14 01:22:05;;;;;;;25.03;4.80;;;7.40;99.90;;;;;;5115639;28;20082;-72
2023/01/14 01:24:30;;;;;;;27.33;3.80;;;7.40;99.90;;;;;;5114824;28;20126;-72
2023/01/14 01:26:57;;;;;;;33.37;5.23;;;7.40;99.90;;;;;;5115425;28;20096;-72
2023/01/14 01:29:23;;;;;;;22.40;4.20;;;7.40;99.90;;;;;;5115648;28;20090;-72
2023/01/14 01:31:49;;;;;;;26.17;3.83;;;7.40;99.90;;;;;;5115741;28;20309;-72
2023/01/14 01:34:14;;;;;;;21.57;3.90;;;7.40;99.90;;;;;;5114345;28;20437;-72
2023/01/14 01:36:40;;;;;;;28.90;4.60;;;7.40;99.90;;;;;;5115572;28;20104;-72
2023/01/14 01:39:06;;;;;;;27.13;5.60;;;7.40;99.90;;;;;;5114353;28;20043;-72
2023/01/14 01:41:32;;;;;;;30.13;4.43;;;7.40;99.90;;;;;;5115529;28;20047;-72
2023/01/14 01:44:03;;;;;;;24.07;4.00;;;7.40;99.90;;;;;;5115125;28;20487;-72
2023/01/14 01:46:30;;;;;;;29.93;5.53;;;7.40;99.90;;;;;;5114577;28;20297;-72
2023/01/14 01:49:00;;;;;;;23.20;4.17;;;7.40;99.90;;;;;;5115089;28;20394;-73
2023/01/14 01:51:30;;;;;;;25.80;4.70;;;7.40;99.90;;;;;;5114144;28;20281;-72
2023/01/14 01:53:57;;;;;;;29.77;5.57;;;7.40;99.90;;;;;;5114954;28;20283;-74
2023/01/14 01:56:28;;;;;;;30.90;4.57;;;7.40;99.90;;;;;;5115437;28;20347;-72
2023/01/14 01:58:56;;;;;;;23.33;4.60;;;7.40;99.90;;;;;;5114189;28;20768;-72
2023/01/14 02:01:22;;;;;;;27.47;4.87;;;7.40;99.90;;;;;;5115028;28;20775;-72
2023/01/14 02:03:50;;;;;;;28.03;4.67;;;7.40;99.90;;;;;;5114993;28;20281;-72
2023/01/14 02:06:16;;;;;;;25.23;4.23;;;7.40;99.90;;;;;;5114750;28;20274;-72
2023/01/14 02:08:46;;;;;;;25.47;4.13;;;7.40;99.90;;;;;;5114692;28;20308;-72
2023/01/14 02:11:27;;;;;;;25.23;4.07;;;7.40;99.90;;;;;;5114660;28;20289;-72
2023/01/14 02:14:11;;;;;;;29.17;4.27;;;7.40;99.90;;;;;;5114517;28;20278;-72
2023/01/14 02:16:42;;;;;;;24.83;3.37;;;7.40;99.90;;;;;;5113935;28;20290;-72
2023/01/14 02:19:20;;;;;;;27.90;5.07;;;7.40;99.90;;;;;;5113512;28;20288;-72
2023/01/14 02:22:17;;;;;;;20.03;4.00;;;7.40;99.90;;;;;;5114877;28;20327;-72
2023/01/14 02:24:48;;;;;;;26.77;4.23;;;7.30;99.90;;;;;;5114835;28;20621;-72
2023/01/14 02:27:36;;;;;;;26.67;4.47;;;7.30;99.90;;;;;;5114254;28;20305;-72
2023/01/14 02:30:16;;;;;;;23.07;3.83;;;7.30;99.90;;;;;;5114481;28;20281;-72
2023/01/14 02:33:06;;;;;;;23.10;4.13;;;7.30;99.90;;;;;;5113250;28;20293;-72
2023/01/14 02:35:53;;;;;;;23.97;4.13;;;7.20;99.90;;;;;;5113248;28;20297;-72
2023/01/14 02:38:52;;;;;;;25.53;4.87;;;7.20;99.90;;;;;;5114141;28;21262;-72
2023/01/14 02:44:29;;;;;;;26.60;4.47;;;7.10;99.90;;;;;;5114094;28;20278;-72
2023/01/14 02:47:12;;;;;;;29.07;4.57;;;7.10;99.90;;;;;;5114417;28;20074;-72
2023/01/14 02:49:43;;;;;;;26.43;4.03;;;7.10;99.90;;;;;;5114480;28;20273;-72
2023/01/14 02:52:09;;;;;;;26.87;3.87;;;7.00;99.90;;;;;;5112779;28;20621;-72
2023/01/14 02:54:35;;;;;;;23.73;4.10;;;7.00;99.90;;;;;;5114136;28;20280;-72
2023/01/14 02:57:17;;;;;;;20.07;4.00;;;7.00;99.90;;;;;;5114142;28;20277;-72
2023/01/14 02:59:52;;;;;;;18.23;3.93;;;6.90;99.90;;;;;;5113033;28;20727;-72
2023/01/14 03:02:36;;;;;;;24.52;4.78;;;6.90;99.90;;;;;;5113695;28;20286;-72
2023/01/14 03:05:20;;;;;;;23.90;4.27;;;6.90;99.90;;;;;;5114330;28;20100;-72
2023/01/14 03:07:58;;;;;;;24.60;4.37;;;6.80;99.90;;;;;;5113934;28;20649;-72
2023/01/14 03:10:35;;;;;;;28.27;3.80;;;6.80;99.90;;;;;;5113474;28;20336;-72
2023/01/14 03:13:12;;;;;;;20.80;3.87;;;6.80;99.90;;;;;;5113819;28;20364;-72
2023/01/14 03:15:56;;;;;;;29.70;3.87;;;6.70;99.90;;;;;;5112919;28;20304;-72
2023/01/14 03:18:47;;;;;;;23.40;4.77;;;6.80;99.90;;;;;;5113549;28;20281;-72
2023/01/14 03:21:21;;;;;;;20.60;3.53;;;6.70;99.90;;;;;;5113543;28;20304;-72
2023/01/14 03:24:01;;;;;;;28.53;3.93;;;6.70;99.90;;;;;;5113687;28;20280;-72
2023/01/14 03:26:31;;;;;;;28.27;4.33;;;6.70;99.90;;;;;;5112671;28;20364;-72
2023/01/14 03:29:00;;;;;;;31.47;4.47;;;6.60;99.90;;;;;;5112479;28;20297;-72
2023/01/14 03:31:28;;;;;;;23.57;4.00;;;6.60;99.90;;;;;;5112386;28;20286;-72
2023/01/14 03:34:08;;;;;;;26.70;4.73;;;6.60;99.90;;;;;;5113552;28;20285;-72
2023/01/14 03:36:36;;;;;;;27.73;5.20;;;6.60;99.90;;;;;;5113724;28;20617;-72
2023/01/14 03:39:05;;;;;;;28.63;4.50;;;6.60;99.90;;;;;;5113423;28;20281;-72
2023/01/14 03:45:00;;;;;;;30.77;4.77;;;6.60;99.90;;;;;;5113263;28;20281;-72
2023/01/14 03:47:28;;;;;;;22.90;3.83;;;6.60;99.90;;;;;;5103790;28;20344;-72
2023/01/14 03:49:57;;;;;;;28.07;4.47;;;6.60;99.90;;;;;;5113418;28;20277;-72
2023/01/14 03:52:26;;;;;;;27.70;4.30;;;6.60;99.90;;;;;;5111944;28;20284;-72
2023/01/14 03:54:59;;;;;;;22.57;5.60;;;6.60;99.90;;;;;;5112602;28;20366;-71
2023/01/14 03:57:43;;;;;;;24.93;4.33;;;6.60;99.90;;;;;;5113096;28;20277;-72
2023/01/14 04:00:35;;;;;;;30.70;4.47;;;6.60;99.90;;;;;;5113085;28;20296;-73
2023/01/14 04:03:05;;;;;;;21.20;3.90;;;6.60;99.90;;;;;;5080921;28;20290;-72
2023/01/14 04:05:31;;;;;;;24.50;4.90;;;6.50;99.90;;;;;;5112965;28;20273;-71
2023/01/14 04:07:59;;;;;;;27.83;4.23;;;6.50;99.90;;;;;;5113259;28;20297;-71
2023/01/14 04:10:25;;;;;;;23.90;3.83;;;6.50;99.90;;;;;;5113155;28;20296;-71
2023/01/14 04:15:35;;;;;;;23.63;5.20;;;6.50;99.90;;;;;;5113194;28;20278;-71
2023/01/14 04:18:02;;;;;;;28.07;4.43;;;6.50;99.90;;;;;;5113142;28;20085;-72
2023/01/14 04:20:27;;;;;;;26.20;4.40;;;6.50;99.90;;;;;;5112854;28;20070;-71
2023/01/14 04:22:53;;;;;;;22.80;3.80;;;6.50;99.90;;;;;;5113037;28;20757;-71
2023/01/14 04:25:19;;;;;;;23.60;5.53;;;6.50;99.90;;;;;;5112826;28;20102;-72
2023/01/14 04:27:45;;;;;;;24.73;4.60;;;6.50;99.90;;;;;;5112697;28;20423;-71
2023/01/14 04:30:11;;;;;;;26.37;4.60;;;6.50;99.90;;;;;;5113004;28;20285;-72
2023/01/14 04:32:37;;;;;;;23.13;4.87;;;6.50;99.90;;;;;;5111852;28;20039;-71
2023/01/14 04:35:04;;;;;;;22.30;4.17;;;6.50;99.90;;;;;;5113005;28;20289;-71
2023/01/14 04:37:29;;;;;;;26.48;4.28;;;6.50;99.90;;;;;;5114042;28;20086;-71
2023/01/14 04:39:55;;;;;;;22.67;4.00;;;6.40;99.90;;;;;;5098837;28;20079;-71
2023/01/14 04:42:27;;;;;;;25.97;4.60;;;6.40;99.90;;;;;;5116441;28;20039;-72
2023/01/14 04:44:58;;;;;;;29.80;4.70;;;6.30;99.90;;;;;;5116936;28;20044;-71
2023/01/14 04:47:24;;;;;;;22.53;3.63;;;6.30;99.90;;;;;;5116289;28;20300;-72
2023/01/14 04:49:50;;;;;;;26.27;5.20;;;6.30;99.90;;;;;;5115656;28;20277;-71
2023/01/14 04:52:16;;;;;;;26.73;5.50;;;6.30;99.90;;;;;;5116184;28;20296;-72
2023/01/14 04:54:42;;;;;;;27.95;3.83;;;6.30;99.90;;;;;;5116450;28;20047;-72
2023/01/14 04:57:08;;;;;;;22.43;3.53;;;6.30;99.90;;;;;;5116489;28;20039;-71
2023/01/14 04:59:33;;;;;;;24.47;3.50;;;6.30;99.90;;;;;;5115071;28;20044;-71
2023/01/14 05:01:59;;;;;;;21.07;3.17;;;6.20;99.90;;;;;;5115397;28;20043;-71
2023/01/14 05:04:25;;;;;;;21.77;4.17;;;6.30;99.90;;;;;;5098107;28;20058;-72
2023/01/14 05:06:50;;;;;;;23.40;3.60;;;6.20;99.90;;;;;;5115132;28;20506;-71
2023/01/14 05:09:16;;;;;;;19.93;3.47;;;6.20;99.90;;;;;;5115596;28;20121;-76
2023/01/14 05:11:42;;;;;;;19.67;3.67;;;6.30;99.90;;;;;;5115474;28;20132;-71
2023/01/14 05:14:07;;;;;;;25.17;4.20;;;6.20;99.90;;;;;;5115763;28;20365;-71
2023/01/14 05:16:33;;;;;;;23.83;3.93;;;6.20;99.90;;;;;;5114752;28;20140;-71
2023/01/14 05:18:59;;;;;;;17.17;3.30;;;6.20;99.90;;;;;;5116100;28;20044;-71
2023/01/14 05:21:24;;;;;;;22.47;3.47;;;6.20;99.90;;;;;;5097712;28;20107;-72
2023/01/14 05:23:50;;;;;;;23.43;3.13;;;6.20;99.90;;;;;;5115945;28;20046;-72
2023/01/14 05:26:16;;;;;;;23.63;3.73;;;6.20;99.90;;;;;;5115794;28;20500;-72
2023/01/14 05:28:42;;;;;;;25.83;3.90;;;6.20;99.90;;;;;;5115512;28;20304;-72
2023/01/14 05:31:08;;;;;;;21.87;3.80;;;6.20;99.90;;;;;;5115713;28;20044;-72
2023/01/14 05:33:34;;;;;;;25.00;4.97;;;6.20;99.90;;;;;;5114377;28;20040;-72
2023/01/14 05:36:01;;;;;;;25.47;4.43;;;6.20;99.90;;;;;;5115682;28;20047;-71
2023/01/14 05:38:27;;;;;;;23.98;4.15;;;6.20;99.90;;;;;;5114286;28;20372;-72
2023/01/14 05:40:53;;;;;;;20.20;3.87;;;6.30;99.90;;;;;;5115580;28;20176;-71
2023/01/14 05:46:13;;;;;;;26.70;4.20;;;6.20;99.90;;;;;;5115694;28;20321;-71
2023/01/14 05:48:39;;;;;;;22.55;4.50;;;6.20;99.90;;;;;;5114108;28;20548;-71
2023/01/14 05:51:05;;;;;;;28.80;4.50;;;6.30;99.90;;;;;;5114495;28;20083;-71
2023/01/14 05:53:32;;;;;;;24.67;5.50;;;6.30;99.90;;;;;;5115059;28;20067;-72
2023/01/14 05:55:58;;;;;;;26.30;4.00;;;6.30;99.90;;;;;;5115183;28;20044;-71
2023/01/14 05:58:24;;;;;;;23.75;4.82;;;6.30;99.90;;;;;;5096940;28;20148;-72
2023/01/14 06:06:21;;;;;;;24.58;4.03;;;6.30;99.90;;;;;;5114058;28;20051;-71
2023/01/14 06:08:51;;;;;;;27.93;4.20;;;6.30;99.90;;;;;;5113312;28;20066;-71
2023/01/14 06:11:18;;;;;;;27.47;4.50;;;6.30;99.90;;;;;;5114950;28;20760;-72
2023/01/14 06:13:45;;;;;;;23.70;4.30;;;6.30;99.90;;;;;;5114582;28;20285;-72
2023/01/14 06:16:11;;;;;;;23.75;4.72;;;6.30;99.90;;;;;;5114659;28;20376;-71
2023/01/14 06:18:42;;;;;;;24.67;4.40;;;6.30;99.90;;;;;;5114577;28;20055;-71
2023/01/14 06:21:10;;;;;;;24.83;4.53;;;6.30;99.90;;;;;;5113874;28;20066;-71
2023/01/14 06:23:37;;;;;;;27.27;4.90;;;6.30;99.90;;;;;;5114282;28;20285;-71
2023/01/14 06:26:03;;;;;;;25.52;5.85;;;6.30;99.90;;;;;;5113457;28;20277;-71
2023/01/14 06:28:29;;;;;;;24.80;4.83;;;6.30;99.90;;;;;;5113865;28;20483;-72
2023/01/14 06:30:55;;;;;;;26.80;6.30;;;6.30;99.90;;;;;;5113557;28;20293;-71
2023/01/14 06:33:21;;;;;;;34.25;5.47;;;6.30;99.90;;;;;;5114448;28;20043;-71
2023/01/14 06:35:47;;;;;;;30.50;5.57;;;6.30;99.90;;;;;;5114184;28;20090;-71
2023/01/14 06:38:13;;;;;;;38.00;5.83;;;6.30;99.90;;;;;;5113216;28;20040;-71
2023/01/14 06:40:41;;;;;;;34.40;6.10;;;6.30;99.90;;;;;;5114088;28;20281;-71
2023/01/14 06:43:08;;;;;;;23.63;6.30;;;6.30;99.90;;;;;;5113299;28;20368;-71
2023/01/14 06:45:34;;;;;;;35.10;5.73;;;6.30;99.90;;;;;;5114099;28;20278;-71
2023/01/14 06:48:00;;;;;;;36.37;6.90;;;6.30;99.90;;;;;;5114214;28;20300;-71
2023/01/14 06:50:26;;;;;;;32.57;6.60;;;6.30;99.90;;;;;;5114216;28;20289;-71
2023/01/14 06:52:55;;;;;;;32.30;6.60;;;6.30;99.90;;;;;;5114165;28;20277;-71
2023/01/14 06:55:21;;;;;;;35.08;6.25;;;6.30;99.90;;;;;;5113999;28;20047;-71
2023/01/14 06:57:47;;;;;;;31.33;7.43;;;6.30;99.90;;;;;;5113710;28;20043;-71
2023/01/14 07:00:14;;;;;;;30.00;6.83;;;6.40;99.90;;;;;;5113439;28;20278;-71
2023/01/14 07:02:40;;;;;;;30.85;7.38;;;6.40;99.90;;;;;;5113295;28;20108;-71
2023/01/14 07:05:06;;;;;;;28.53;6.43;;;6.40;99.90;;;;;;5114105;28;20043;-71
2023/01/14 07:07:32;;;;;;;36.05;6.60;;;6.40;99.90;;;;;;5112559;28;20044;-72
2023/01/14 07:09:58;;;;;;;32.83;6.47;;;6.40;99.90;;;;;;5112107;28;20385;-71
2023/01/14 07:12:24;;;;;;;33.07;7.57;;;6.50;99.90;;;;;;5113769;28;20055;-71
2023/01/14 07:14:49;;;;;;;27.30;6.97;;;6.50;99.90;;;;;;5112535;28;20506;-71
2023/01/14 07:17:15;;;;;;;32.20;7.57;;;6.50;99.90;;;;;;5112572;28;20292;-71
2023/01/14 07:19:41;;;;;;;39.93;8.43;;;6.50;99.90;;;;;;5113136;28;20092;-72
2023/01/14 07:22:06;;;;;;;30.80;6.43;;;6.50;99.90;;;;;;5113704;28;20097;-71
2023/01/14 07:24:32;;;;;;;30.10;6.60;;;6.50;99.90;;;;;;5113389;28;20051;-72
2023/01/14 07:26:58;;;;;;;33.10;7.03;;;6.50;99.90;;;;;;5112545;28;20074;-71
2023/01/14 07:29:24;;;;;;;35.33;8.00;;;6.50;99.90;;;;;;5113763;28;20090;-71
2023/01/14 07:31:51;;;;;;;32.43;7.93;;;6.50;99.90;;;;;;5113539;28;20065;-71
2023/01/14 07:34:16;;;;;;;31.03;7.33;;;6.50;99.90;;;;;;5112541;28;20054;-71
2023/01/14 07:36:42;;;;;;;29.00;6.57;;;6.50;99.90;;;;;;5113229;28;20372;-71
2023/01/14 07:39:09;;;;;;;33.60;7.00;;;6.60;99.90;;;;;;5113511;28;20039;-71
2023/01/14 07:41:34;;;;;;;33.60;9.10;;;6.60;99.90;;;;;;5095243;28;20105;-72
2023/01/14 07:44:02;;;;;;;36.37;6.13;;;6.60;99.90;;;;;;5112457;28;20768;-71
2023/01/14 07:46:28;;;;;;;30.33;6.40;;;6.60;99.90;;;;;;5113479;28;20483;-71
2023/01/14 07:48:53;;;;;;;30.93;6.67;;;6.60;99.90;;;;;;5111851;28;20301;-71
2023/01/14 07:51:20;;;;;;;33.33;6.60;;;6.60;99.90;;;;;;5113394;28;20498;-71
2023/01/14 07:53:49;;;;;;;28.70;5.60;;;6.60;99.90;;;;;;5112074;28;20491;-71
2023/01/14 07:56:15;;;;;;;33.90;5.83;;;6.60;99.90;;;;;;5113319;28;20277;-70
2023/01/14 07:58:41;;;;;;;38.17;6.40;;;6.60;99.90;;;;;;5112801;28;20977;-71
2023/01/14 08:01:08;;;;;;;40.43;7.63;;;6.60;99.90;;;;;;5112524;28;20384;-70
2023/01/14 08:03:35;;;;;;;24.77;5.00;;;6.60;99.90;;;;;;5113072;28;20468;-75
2023/01/14 08:06:05;;;;;;;29.83;5.88;;;6.60;99.90;;;;;;5113296;28;20040;-70
2023/01/14 08:08:31;;;;;;;31.03;6.07;;;6.60;99.90;;;;;;5113110;28;20036;-69
2023/01/14 08:11:03;;;;;;;32.80;5.60;;;6.60;99.90;;;;;;5113036;28;20347;-69
2023/01/14 08:13:30;;;;;;;42.53;6.13;;;6.60;99.90;;;;;;5116261;28;20039;-69
2023/01/14 08:16:01;;;;;;;37.33;6.20;;;6.60;99.90;;;;;;5116903;28;20326;-70
2023/01/14 08:18:27;;;;;;;29.58;5.97;;;6.60;99.90;;;;;;5117302;28;20083;-70
2023/01/14 08:21:00;;;;;;;30.47;5.93;;;6.60;99.90;;;;;;5116799;28;20048;-69
2023/01/14 08:23:26;;;;;;;27.70;4.77;;;6.60;99.90;;;;;;5098969;28;20828;-69
2023/01/14 08:25:52;;;;;;;36.33;6.07;;;6.60;99.90;;;;;;5116749;28;20289;-69
2023/01/14 08:28:18;;;;;;;35.77;6.27;;;6.60;99.90;;;;;;5116925;28;20039;-69
2023/01/14 08:30:44;;;;;;;34.30;6.18;;;6.50;99.90;;;;;;5116595;28;20086;-70
2023/01/14 08:33:10;;;;;;;30.60;6.17;;;6.50;99.90;;;;;;5116813;28;20079;-69
2023/01/14 08:35:39;;;;;;;35.20;5.47;;;6.60;99.90;;;;;;5116803;28;20047;-69
2023/01/14 08:38:06;;;;;;;33.60;6.38;;;6.50;99.90;;;;;;5116785;28;20522;-69
2023/01/14 08:40:32;;;;;;;36.30;5.67;;;6.60;99.90;;;;;;5116886;28;20123;-69
2023/01/14 08:42:58;;;;;;;27.98;5.03;;;6.50;99.90;;;;;;5116432;28;20288;-68
2023/01/14 08:45:24;;;;;;;25.80;4.67;;;6.60;99.90;;;;;;5116428;28;20043;-68
2023/01/14 08:47:49;;;;;;;25.90;5.93;;;6.50;99.90;;;;;;5116247;28;20050;-68
2023/01/14 08:50:15;;;;;;;33.10;5.90;;;6.50;99.90;;;;;;5116720;28;20051;-68
2023/01/14 08:52:42;;;;;;;32.63;5.70;;;6.50;99.90;;;;;;5116261;27;20131;-69
2023/01/14 08:55:08;;;;;;;28.93;5.43;;;6.50;99.90;;;;;;5116537;28;20296;-68
2023/01/14 08:57:34;;;;;;;28.77;4.80;;;6.50;99.90;;;;;;5115517;28;20282;-68
2023/01/14 09:00:00;;;;;;;30.17;5.10;;;6.50;99.90;;;;;;5116050;28;20854;-68
2023/01/14 09:02:26;;;;;;;69.93;23.13;;;6.50;99.90;;;;;;5116469;28;20070;-68
2023/01/14 09:04:51;;;;;;;29.37;4.80;;;6.50;99.90;;;;;;5115858;28;20126;-68
2023/01/14 09:18:14;;;;;;;38.53;8.20;;;6.40;99.90;;;;;;5116286;27;20262;-68
2023/01/14 09:20:42;;;;;;;40.47;10.90;;;6.40;99.90;;;;;;5114809;28;20095;-69
2023/01/14 09:23:09;;;;;;;41.07;6.23;;;6.40;99.90;;;;;;5115647;28;20043;-68
2023/01/14 09:25:35;;;;;;;51.85;16.85;;;6.40;99.90;;;;;;5115210;28;20273;-68
2023/01/14 09:28:00;;;;;;;46.13;14.37;;;6.40;99.90;;;;;;5113947;28;20476;-69
2023/01/14 09:30:26;;;;;;;31.30;7.47;;;6.40;99.90;;;;;;5115784;28;20080;-68
2023/01/14 09:32:53;;;;;;;26.07;5.23;;;6.40;99.90;;;;;;5115413;28;20043;-68
2023/01/14 09:35:19;;;;;;;50.88;19.05;;;6.40;99.90;;;;;;5115703;28;20292;-68
2023/01/14 09:37:44;;;;;;;33.13;11.10;;;6.40;99.90;;;;;;5115471;28;20040;-75
2023/01/14 09:40:11;;;;;;;30.60;7.33;;;6.40;99.90;;;;;;5115581;28;20047;-68
2023/01/14 09:42:45;;;;;;;34.60;12.40;;;6.40;99.90;;;;;;5114751;28;20395;-68
2023/01/14 09:45:28;;;;;;;31.27;10.55;;;6.40;99.90;;;;;;5114867;28;20058;-67
2023/01/14 09:47:58;;;;;;;21.73;5.90;;;6.40;99.90;;;;;;5115255;28;20377;-68
2023/01/14 09:51:00;;;;;;;24.92;7.03;;;6.50;99.90;;;;;;5115417;28;20112;-67
2023/01/14 09:53:50;;;;;;;24.40;6.13;;;6.40;99.90;;;;;;5115643;27;20144;-67
2023/01/14 09:56:28;;;;;;;25.47;8.03;;;6.50;99.90;;;;;;5114486;28;20297;-67
2023/01/14 09:59:10;;;;;;;21.45;7.38;;;6.50;99.90;;;;;;5115045;28;20360;-69
2023/01/14 10:01:48;;;;;;;21.00;5.53;;;6.60;99.90;;;;;;5115318;28;20047;-68
2023/01/14 10:04:36;;;;;;;29.95;12.00;;;6.60;99.90;;;;;;5115510;28;20130;-69
2023/01/14 10:07:03;;;;;;;18.10;4.50;;;6.60;99.90;;;;;;5114902;28;20053;-69
2023/01/14 10:09:52;;;;;;;15.27;4.33;;;6.60;99.90;;;;;;5115197;28;20286;-68
2023/01/14 10:12:23;;;;;;;22.23;8.23;;;6.60;99.90;;;;;;5105254;28;20301;-68
2023/01/14 10:15:14;;;;;;;15.55;3.83;;;6.60;99.90;;;;;;5114853;28;20622;-72
2023/01/14 10:17:42;;;;;;;18.10;4.78;;;6.70;99.90;;;;;;5114821;28;20039;-68
2023/01/14 10:20:28;;;;;;;28.35;12.10;;;6.70;99.90;;;;;;5114574;28;20459;-69
2023/01/14 10:23:13;;;;;;;;;;;6.70;99.90;;;;;;5115327;28;20054;-69
2023/01/14 10:25:48;;;;;;;13.32;4.32;;;6.80;99.90;;;;;;5113785;28;19969;-71
2023/01/14 10:28:16;;;;;;;13.88;3.10;;;6.80;99.90;;;;;;5114162;28;20058;-69
2023/01/14 10:30:42;;;;;;;9.75;3.42;;;6.80;99.90;;;;;;5114662;28;20050;-68
2023/01/14 10:33:13;;;;;;;9.13;3.10;;;6.80;99.90;;;;;;5113340;28;20043;-75
2023/01/14 10:35:45;;;;;;;10.57;2.70;;;6.90;99.90;;;;;;5114417;28;20324;-74
2023/01/14 10:38:23;;;;;;;9.53;2.60;;;6.90;99.90;;;;;;5113343;28;20052;-76
2023/01/14 10:40:52;;;;;;;12.35;2.78;;;6.90;99.90;;;;;;5114550;28;20331;-76
2023/01/14 10:43:32;;;;;;;10.17;2.90;;;7.00;99.90;;;;;;5114687;28;20382;-76
2023/01/14 10:45:58;;;;;;;11.93;2.50;;;7.00;99.90;;;;;;5114146;28;20274;-76
2023/01/14 10:48:25;;;;;;;11.63;2.60;;;7.10;99.90;;;;;;5114231;28;20040;-75
2023/01/14 10:50:52;;;;;;;7.95;2.83;;;7.10;99.90;;;;;;5114371;28;20489;-75
2023/01/14 10:53:23;;;;;;;7.88;2.72;;;7.10;99.90;;;;;;5114143;28;20047;-75
2023/01/14 10:55:59;;;;;;;10.80;2.97;;;7.10;99.90;;;;;;5112978;28;20395;-75
2023/01/14 10:58:34;;;;;;;10.00;2.95;;;7.10;99.90;;;;;;5114072;28;20499;-76
2023/01/14 11:01:06;;;;;;;10.15;4.22;;;7.20;99.90;;;;;;5113024;28;20051;-75
2023/01/14 11:03:35;;;;;;;10.40;3.67;;;7.10;99.90;;;;;;5114216;28;20429;-75
2023/01/14 11:06:08;;;;;;;9.38;2.83;;;7.20;99.90;;;;;;5113366;28;20318;-75
2023/01/14 11:08:48;;;;;;;11.73;3.03;;;7.20;99.90;;;;;;5113995;28;20039;-73
2023/01/14 11:11:20;;;;;;;7.63;2.90;;;7.20;99.90;;;;;;5113226;28;20318;-77
2023/01/14 11:13:48;;;;;;;9.87;3.80;;;7.20;99.90;;;;;;5113438;28;20311;-77
2023/01/14 11:16:29;;;;;;;8.07;2.73;;;7.20;99.90;;;;;;5108740;28;20284;-77
2023/01/14 11:19:19;;;;;;;7.15;2.72;;;7.20;99.90;;;;;;5112134;28;20621;-77
2023/01/14 11:21:52;;;;;;;7.20;2.37;;;7.20;99.90;;;;;;5103787;28;20047;-77
2023/01/14 11:24:38;;;;;;;10.05;2.53;;;7.30;99.90;;;;;;5112617;28;20757;-78
2023/01/14 11:27:17;;;;;;;12.05;2.47;;;7.30;99.90;;;;;;5110237;28;20145;-77
2023/01/14 11:29:50;;;;;;;10.33;2.97;;;7.20;99.90;;;;;;5111932;28;20044;-77
2023/01/14 11:32:21;;;;;;;7.13;3.00;;;7.30;99.90;;;;;;5109630;28;20281;-74
2023/01/14 11:34:50;;;;;;;8.60;2.70;;;7.30;99.90;;;;;;5113234;28;20353;-75
2023/01/14 11:37:24;;;;;;;9.43;2.70;;;7.30;99.90;;;;;;5110121;28;20784;-71
2023/01/14 11:43:22;;;;;;;7.97;2.60;;;7.30;99.90;;;;;;5092808;28;20292;-78
2023/01/14 11:46:12;;;;;;;7.50;3.20;;;7.30;99.90;;;;;;5110429;28;20043;-78
2023/01/14 11:48:40;;;;;;;8.67;2.83;;;7.30;99.90;;;;;;5115542;28;20301;-76
2023/01/14 11:51:17;;;;;;;9.07;3.00;;;7.40;99.90;;;;;;5117026;28;20281;-77
2023/01/14 11:53:48;;;;;;;8.70;2.93;;;7.40;99.90;;;;;;5117297;28;20274;-79
2023/01/14 11:56:31;;;;;;;7.05;2.45;;;7.40;99.90;;;;;;5116975;28;20323;-75
2023/01/14 11:58:59;;;;;;;8.10;2.97;;;7.40;99.90;;;;;;5114833;28;20522;-75
2023/01/14 12:01:38;;;;;;;8.20;2.23;;;7.40;99.90;;;;;;5117213;28;20489;-74
2023/01/14 12:04:06;;;;;;;12.13;2.70;;;7.40;99.90;;;;;;5123044;27;20302;-73
2023/01/14 12:06:45;;;;;;;9.33;2.30;;;7.40;99.90;;;;;;5116303;28;20297;-69
2023/01/14 12:09:21;;;;;;;7.77;2.60;;;7.50;99.90;;;;;;5117056;28;20310;-70
2023/01/14 12:11:55;;;;;;;7.70;2.53;;;7.50;99.90;;;;;;5116599;28;20608;-70
2023/01/14 12:17:10;;;;;;;6.17;2.20;;;7.60;99.90;;;;;;5117110;28;20269;-70
2023/01/14 12:19:45;;;;;;;8.40;2.30;;;7.60;99.90;;;;;;5117530;28;20763;-70
2023/01/14 12:22:19;;;;;;;8.45;2.97;;;7.60;99.90;;;;;;5117092;28;20043;-72
2023/01/14 12:24:58;;;;;;;10.40;2.40;;;7.60;99.90;;;;;;5117391;28;20138;-70
2023/01/14 12:28:04;;;;;;;7.50;1.97;;;7.70;99.90;;;;;;5116757;28;20326;-70
2023/01/14 12:30:58;;;;;;;7.18;2.20;;;7.70;99.90;;;;;;5104003;28;20294;-71
2023/01/14 12:33:42;;;;;;;7.30;2.63;;;7.70;99.90;;;;;;5116605;27;20217;-71
2023/01/14 12:36:26;;;;;;;6.50;2.20;;;7.80;99.90;;;;;;5116896;28;20288;-71
2023/01/14 12:47:44;;;;;;;7.20;1.87;;;7.90;99.90;;;;;;5116699;28;20298;-70
2023/01/14 12:50:13;;;;;;;6.13;2.10;;;7.90;99.90;;;;;;5116165;28;20618;-71
2023/01/14 12:52:48;;;;;;;7.23;2.00;;;8.00;99.90;;;;;;5116593;28;20127;-69
2023/01/14 12:55:24;;;;;;;4.53;1.92;;;8.00;99.90;;;;;;5115525;28;20296;-71
2023/01/14 12:57:53;;;;;;;9.60;2.33;;;8.10;99.90;;;;;;5115206;28;20052;-70
2023/01/14 13:00:26;;;;;;;4.77;2.00;;;8.10;99.90;;;;;;5116106;28;20277;-71
2023/01/14 13:02:54;;;;;;;6.00;2.20;;;8.10;99.90;;;;;;5105832;28;20394;-73
2023/01/14 13:05:37;;;;;;;5.63;2.37;;;8.20;99.90;;;;;;5112180;28;20374;-77
2023/01/14 13:08:07;;;;;;;6.73;2.57;;;8.30;99.90;;;;;;5109978;28;20297;-72
2023/01/14 13:10:38;;;;;;;8.00;2.20;;;8.30;99.90;;;;;;5113695;28;20293;-72
2023/01/14 13:13:17;;;;;;;5.67;3.07;;;8.30;99.90;;;;;;5107535;28;20778;-74
2023/01/14 13:15:43;;;;;;;5.37;2.43;;;8.40;99.90;;;;;;5112934;28;20343;-72
2023/01/14 13:18:33;;;;;;;5.00;2.40;;;8.40;99.90;;;;;;5115565;27;20374;-78
2023/01/14 13:21:04;;;;;;;5.70;2.40;;;8.40;99.90;;;;;;5105822;28;20166;-71
2023/01/14 13:23:36;;;;;;;5.00;2.20;;;8.50;99.90;;;;;;5113258;28;20309;-69
2023/01/14 13:26:17;;;;;;;6.63;3.53;;;8.50;99.90;;;;;;5110277;28;20868;-72
2023/01/14 13:29:17;;;;;;;7.73;2.50;;;8.50;99.90;;;;;;5113696;28;20381;-70
2023/01/14 13:31:45;;;;;;;8.23;2.43;;;8.60;99.90;;;;;;5108561;28;20625;-71
2023/01/14 13:34:28;;;;;;;5.90;2.23;;;8.60;99.90;;;;;;5113434;28;20351;-79
2023/01/14 13:36:59;;;;;;;5.73;2.33;;;8.70;99.90;;;;;;5110582;28;20366;-75
2023/01/14 13:39:27;;;;;;;3.93;2.00;;;8.70;99.90;;;;;;5113621;28;20338;-71
2023/01/14 13:41:57;;;;;;;7.87;3.17;;;8.70;99.90;;;;;;5109544;27;20334;-76
2023/01/14 13:44:28;;;;;;;4.70;2.73;;;8.80;99.90;;;;;;5111001;28;20369;-71
2023/01/14 13:47:03;;;;;;;4.47;2.13;;;8.80;99.90;;;;;;5110918;28;20370;-80
2023/01/14 13:49:40;;;;;;;4.27;1.87;;;8.80;99.90;;;;;;5108311;28;20657;-71